createdAt,value
2022-10-30T00:00:44.033Z,46.47
2022-10-30T00:03:13.315Z,43.17
2022-10-30T00:05:45.881Z,42.15
2022-10-30T00:08:14.383Z,41.85
2022-10-30T00:10:41.839Z,43.42
2022-10-30T00:13:09.968Z,46.33
2022-10-30T00:15:37.636Z,40.55
2022-10-30T00:18:05.447Z,49.13
2022-10-30T00:20:32.824Z,42.92
2022-10-30T00:23:00.603Z,45.47
2022-10-30T00:25:28.179Z,44.45
2022-10-30T00:27:55.540Z,46.63
2022-10-30T00:30:23.147Z,43.10
2022-10-30T00:32:50.482Z,42.15
2022-10-30T00:35:17.854Z,43.53
2022-10-30T00:37:45.481Z,41.10
2022-10-30T00:40:16.113Z,47.00
2022-10-30T00:42:44.567Z,41.58
2022-10-30T00:45:13.809Z,39.67
2022-10-30T00:47:52.835Z,46.88
2022-10-30T00:53:13.813Z,41.63
2022-10-30T00:55:48.813Z,44.05
2022-10-30T01:00:47.900Z,38.13
2022-10-30T01:03:17.066Z,40.67
2022-10-30T01:05:45.953Z,39.63
2022-10-30T01:08:13.355Z,41.88
2022-10-30T01:10:40.901Z,37.97
2022-10-30T01:13:08.628Z,37.53
2022-10-30T01:15:40.830Z,39.25
2022-10-30T01:19:07.140Z,39.17
2022-10-30T01:22:03.242Z,44.30
2022-10-30T01:24:39.984Z,34.60
2022-10-30T01:27:29.217Z,41.85
2022-10-30T01:30:20.554Z,39.28
2022-10-30T01:33:01.711Z,39.03
2022-10-30T01:35:43.074Z,36.53
2022-10-30T01:38:14.780Z,34.33
2022-10-30T01:40:45.017Z,38.28
2022-10-30T01:43:12.516Z,42.00
2022-10-30T01:45:54.950Z,38.20
2022-10-30T01:48:44.287Z,34.83
2022-10-30T01:51:24.475Z,38.72
2022-10-30T01:54:16.724Z,34.95
2022-10-30T01:57:03.597Z,36.65
2022-10-30T01:59:39.596Z,32.13
2022-10-30T02:02:07.602Z,40.03
2022-10-30T02:04:35.780Z,33.92
2022-10-30T02:07:03.742Z,35.72
2022-10-30T02:09:34.617Z,34.83
2022-10-30T02:12:02.902Z,33.97
2022-10-30T02:14:34.613Z,31.33
2022-10-30T02:17:05.933Z,29.30
2022-10-30T02:19:33.487Z,27.98
2022-10-30T02:22:03.236Z,27.33
2022-10-30T02:24:31.751Z,28.62
2022-10-30T02:27:00.337Z,28.10
2022-10-30T02:29:27.997Z,32.80
2022-10-30T02:31:55.353Z,27.42
2022-10-30T02:34:23.023Z,29.70
2022-10-30T02:36:50.500Z,27.50
2022-10-30T02:39:18.153Z,31.75
2022-10-30T02:41:45.807Z,29.27
2022-10-30T02:44:13.172Z,28.45
2022-10-30T02:46:40.632Z,25.88
2022-10-30T02:49:08.308Z,27.00
2022-10-30T02:51:36.084Z,28.35
2022-10-30T02:54:03.500Z,26.90
2022-10-30T02:56:31.476Z,30.35
2022-10-30T02:59:00.178Z,31.08
2022-10-30T03:01:27.650Z,27.23
2022-10-30T03:03:55.689Z,29.48
2022-10-30T03:06:23.584Z,28.30
2022-10-30T03:08:51.134Z,24.83
2022-10-30T03:11:19.877Z,27.98
2022-10-30T03:13:48.264Z,26.10
2022-10-30T03:16:16.959Z,25.85
2022-10-30T03:18:44.867Z,28.65
2022-10-30T03:21:15.043Z,27.80
2022-10-30T03:23:42.668Z,30.05
2022-10-30T03:26:10.431Z,28.75
2022-10-30T03:28:38.784Z,33.00
2022-10-30T03:31:11.541Z,29.50
2022-10-30T03:33:40.986Z,28.95
2022-10-30T03:36:10.481Z,28.85
2022-10-30T03:38:38.076Z,31.62
2022-10-30T03:41:06.041Z,25.85
2022-10-30T03:43:33.437Z,29.65
2022-10-30T03:46:00.858Z,27.87
2022-10-30T03:48:29.650Z,28.77
2022-10-30T03:50:58.558Z,29.05
2022-10-30T03:53:28.537Z,32.80
2022-10-30T03:56:01.172Z,29.08
2022-10-30T03:58:29.662Z,29.90
2022-10-30T04:01:05.183Z,28.12
2022-10-30T04:03:34.316Z,31.15
2022-10-30T04:06:01.849Z,28.35
2022-10-30T04:08:29.328Z,30.48
2022-10-30T04:10:58.037Z,30.60
2022-10-30T04:13:25.794Z,29.65
2022-10-30T04:15:57.286Z,32.67
2022-10-30T04:18:26.229Z,28.10
2022-10-30T04:20:53.845Z,30.83
2022-10-30T04:23:22.241Z,29.80
2022-10-30T04:25:49.968Z,29.15
2022-10-30T04:28:17.794Z,27.02
2022-10-30T04:30:46.945Z,28.98
2022-10-30T04:33:15.142Z,26.30
2022-10-30T04:35:42.983Z,25.35
2022-10-30T04:38:14.875Z,23.77
2022-10-30T04:40:43.532Z,23.23
2022-10-30T04:43:12.276Z,23.55
2022-10-30T04:45:40.348Z,26.62
2022-10-30T04:48:13.298Z,24.05
2022-10-30T04:50:41.806Z,24.80
2022-10-30T04:53:14.533Z,22.98
2022-10-30T04:55:42.454Z,22.62
2022-10-30T04:58:10.996Z,23.75
2022-10-30T05:00:40.027Z,29.48
2022-10-30T05:03:09.495Z,27.95
2022-10-30T05:05:37.420Z,23.70
2022-10-30T05:08:04.930Z,23.30
2022-10-30T05:10:32.292Z,27.98
2022-10-30T05:13:00.196Z,25.02
2022-10-30T05:15:27.636Z,24.60
2022-10-30T05:17:55.184Z,22.75
2022-10-30T05:20:23.007Z,23.67
2022-10-30T05:22:55.302Z,21.10
2022-10-30T05:25:23.868Z,20.40
2022-10-30T05:27:51.458Z,22.17
2022-10-30T05:30:19.065Z,21.77
2022-10-30T05:32:46.862Z,20.52
2022-10-30T05:35:14.259Z,22.23
2022-10-30T05:37:41.728Z,21.27
2022-10-30T05:40:09.993Z,19.92
2022-10-30T05:42:37.333Z,21.35
2022-10-30T05:45:05.161Z,21.23
2022-10-30T05:47:34.086Z,19.95
2022-10-30T05:50:02.419Z,19.37
2022-10-30T05:52:29.776Z,19.62
2022-10-30T05:54:57.650Z,21.40
2022-10-30T05:57:28.140Z,18.48
2022-10-30T05:59:56.091Z,17.73
2022-10-30T06:02:23.859Z,17.27
2022-10-30T06:04:51.767Z,19.92
2022-10-30T06:07:19.329Z,18.50
2022-10-30T06:09:47.527Z,16.73
2022-10-30T06:12:16.000Z,18.87
2022-10-30T06:14:43.878Z,19.50
2022-10-30T06:17:11.359Z,18.62
2022-10-30T06:19:39.158Z,18.08
2022-10-30T06:22:08.189Z,20.05
2022-10-30T06:24:35.586Z,20.20
2022-10-30T06:27:03.367Z,17.37
2022-10-30T06:29:30.792Z,18.92
2022-10-30T06:31:59.788Z,18.10
2022-10-30T06:34:30.023Z,19.08
2022-10-30T06:36:57.662Z,17.95
2022-10-30T06:39:25.109Z,16.73
2022-10-30T06:41:54.747Z,19.05
2022-10-30T06:44:22.484Z,20.35
2022-10-30T06:46:53.032Z,21.23
2022-10-30T06:49:21.006Z,23.00
2022-10-30T06:51:49.423Z,23.38
2022-10-30T06:54:16.892Z,22.33
2022-10-30T06:56:50.014Z,26.83
2022-10-30T06:59:17.699Z,23.55
2022-10-30T07:01:45.537Z,20.55
2022-10-30T07:04:13.058Z,20.40
2022-10-30T07:06:40.520Z,21.10
2022-10-30T07:09:08.139Z,24.50
2022-10-30T07:11:35.501Z,23.30
2022-10-30T07:14:03.102Z,29.17
2022-10-30T07:16:32.070Z,20.62
2022-10-30T07:19:02.161Z,20.88
2022-10-30T07:21:32.494Z,26.12
2022-10-30T07:23:59.911Z,22.00
2022-10-30T07:26:27.437Z,22.80
2022-10-30T07:28:55.331Z,22.33
2022-10-30T07:31:34.982Z,25.48
2022-10-30T07:34:10.437Z,25.45
2022-10-30T07:36:39.379Z,21.50
2022-10-30T07:39:06.831Z,24.17
2022-10-30T07:41:35.317Z,24.83
2022-10-30T07:44:12.383Z,23.25
2022-10-30T07:46:41.892Z,20.80
2022-10-30T07:49:09.998Z,25.65
2022-10-30T07:51:38.413Z,23.48
2022-10-30T07:54:06.158Z,26.15
2022-10-30T07:56:33.959Z,24.73
2022-10-30T07:59:04.044Z,23.65
2022-10-30T08:01:31.889Z,23.42
2022-10-30T08:04:02.526Z,23.12
2022-10-30T08:06:30.683Z,24.92
2022-10-30T08:08:58.045Z,22.83
2022-10-30T08:11:26.010Z,22.85
2022-10-30T08:13:53.518Z,21.45
2022-10-30T08:16:21.023Z,22.45
2022-10-30T08:18:50.100Z,24.05
2022-10-30T08:21:18.997Z,22.83
2022-10-30T08:23:47.513Z,20.90
2022-10-30T08:26:15.284Z,22.13
2022-10-30T08:28:42.965Z,21.83
2022-10-30T08:31:10.504Z,19.92
2022-10-30T08:33:42.363Z,19.73
2022-10-30T08:36:14.461Z,20.40
2022-10-30T08:38:42.109Z,22.05
2022-10-30T08:41:10.158Z,21.65
2022-10-30T08:43:38.943Z,21.58
2022-10-30T08:46:06.645Z,20.75
2022-10-30T08:48:34.064Z,21.30
2022-10-30T08:51:01.986Z,21.85
2022-10-30T08:53:30.093Z,20.42
2022-10-30T08:55:58.260Z,23.87
2022-10-30T08:58:25.908Z,22.65
2022-10-30T09:00:58.607Z,23.23
2022-10-30T09:03:38.989Z,20.40
2022-10-30T09:06:11.529Z,22.23
2022-10-30T09:08:39.860Z,23.48
2022-10-30T09:11:07.712Z,22.83
2022-10-30T09:13:35.512Z,22.65
2022-10-30T09:16:03.531Z,24.83
2022-10-30T09:18:31.700Z,24.85
2022-10-30T09:21:03.026Z,25.83
2022-10-30T09:23:33.290Z,25.15
2022-10-30T09:26:01.394Z,24.27
2022-10-30T09:28:29.780Z,21.60
2022-10-30T09:30:57.692Z,24.05
2022-10-30T09:33:25.677Z,27.13
2022-10-30T09:35:55.332Z,22.70
2022-10-30T09:38:23.014Z,25.67
2022-10-30T09:41:10.507Z,26.02
2022-10-30T09:44:14.865Z,24.10
2022-10-30T09:46:56.938Z,27.67
2022-10-30T09:49:41.256Z,28.10
2022-10-30T09:52:35.528Z,25.37
2022-10-30T09:55:18.617Z,27.47
2022-10-30T09:58:06.600Z,24.10
2022-10-30T10:00:39.592Z,22.85
2022-10-30T10:03:34.873Z,24.63
2022-10-30T10:06:04.573Z,25.20
2022-10-30T10:08:43.894Z,22.73
2022-10-30T10:11:30.290Z,26.65
2022-10-30T10:14:23.558Z,26.55
2022-10-30T10:16:55.581Z,24.75
2022-10-30T10:19:29.997Z,28.23
2022-10-30T10:22:00.087Z,26.05
2022-10-30T10:24:31.990Z,24.58
2022-10-30T10:27:20.953Z,25.42
2022-10-30T10:30:08.935Z,26.30
2022-10-30T10:33:03.898Z,24.90
2022-10-30T10:35:41.088Z,25.62
2022-10-30T10:38:30.186Z,22.08
2022-10-30T10:41:30.088Z,21.95
2022-10-30T10:44:25.525Z,22.80
2022-10-30T10:47:24.108Z,25.92
2022-10-30T10:50:14.163Z,22.17
2022-10-30T10:52:53.507Z,21.10
2022-10-30T10:55:28.477Z,21.62
2022-10-30T10:58:02.604Z,19.40
2022-10-30T11:00:30.606Z,22.43
2022-10-30T11:03:12.807Z,19.45
2022-10-30T11:05:48.267Z,20.40
2022-10-30T11:08:20.286Z,20.33
2022-10-30T11:10:51.009Z,21.70
2022-10-30T11:13:18.620Z,19.75
2022-10-30T11:15:57.956Z,22.20
2022-10-30T11:18:25.565Z,20.60
2022-10-30T11:21:19.958Z,21.73
2022-10-30T11:23:49.147Z,19.10
2022-10-30T11:26:20.344Z,19.33
2022-10-30T11:28:53.997Z,18.92
2022-10-30T11:31:21.237Z,20.33
2022-10-30T11:33:49.130Z,17.65
2022-10-30T11:36:19.728Z,19.50
2022-10-30T11:38:47.089Z,17.45
2022-10-30T11:41:14.938Z,19.23
2022-10-30T11:43:43.212Z,19.08
2022-10-30T11:46:12.860Z,21.73
2022-10-30T11:48:44.650Z,21.35
2022-10-30T11:51:13.392Z,22.40
2022-10-30T11:53:43.157Z,18.40
2022-10-30T11:56:16.755Z,21.75
2022-10-30T11:58:46.915Z,21.80
2022-10-30T12:01:21.263Z,21.58
2022-10-30T12:06:29.214Z,24.48
2022-10-30T12:09:02.163Z,24.87
2022-10-30T12:11:37.049Z,21.55
2022-10-30T12:14:05.095Z,23.15
2022-10-30T12:16:33.240Z,23.40
2022-10-30T12:19:06.211Z,22.05
2022-10-30T12:21:40.083Z,20.58
2022-10-30T12:24:21.881Z,21.52
2022-10-30T12:26:51.436Z,20.90
2022-10-30T12:29:20.742Z,24.17
2022-10-30T12:32:01.583Z,21.00
2022-10-30T12:34:43.646Z,19.50
2022-10-30T12:37:40.882Z,21.45
2022-10-30T12:40:15.413Z,19.60
2022-10-30T12:42:55.459Z,26.30
2022-10-30T12:45:28.591Z,26.10
2022-10-30T12:48:03.643Z,21.25
2022-10-30T12:50:42.382Z,23.70
2022-10-30T12:53:18.633Z,22.33
2022-10-30T12:55:49.987Z,23.10
2022-10-30T12:58:46.263Z,21.25
2022-10-30T13:01:24.642Z,20.12
2022-10-30T13:04:10.763Z,16.60
2022-10-30T13:06:53.602Z,19.20
2022-10-30T13:09:38.423Z,18.75
2022-10-30T13:14:42.638Z,18.80
2022-10-30T13:17:13.875Z,17.98
2022-10-30T13:19:42.410Z,16.85
2022-10-30T13:22:30.338Z,17.98
2022-10-30T13:25:04.440Z,20.35
2022-10-30T13:27:41.985Z,19.52
2022-10-30T13:30:32.102Z,18.75
2022-10-30T13:33:47.391Z,18.37
2022-10-30T13:36:29.581Z,21.17
2022-10-30T13:39:07.566Z,19.10
2022-10-30T13:41:59.247Z,19.20
2022-10-30T13:44:38.808Z,18.08
2022-10-30T13:47:24.357Z,16.87
2022-10-30T13:50:15.137Z,19.42
2022-10-30T13:52:48.563Z,19.55
2022-10-30T13:55:22.138Z,17.95
2022-10-30T13:58:26.491Z,17.05
2022-10-30T14:01:06.099Z,19.67
2022-10-30T14:03:51.807Z,18.48
2022-10-30T14:06:24.893Z,18.15
2022-10-30T14:09:13.797Z,17.15
2022-10-30T14:11:41.133Z,18.85
2022-10-30T14:14:23.833Z,20.37
2022-10-30T14:17:14.550Z,20.37
2022-10-30T14:20:13.360Z,20.23
2022-10-30T14:22:41.575Z,17.92
2022-10-30T14:25:13.830Z,17.67
2022-10-30T14:27:41.153Z,16.77
2022-10-30T14:30:19.480Z,18.87
2022-10-30T14:32:53.490Z,17.17
2022-10-30T14:35:36.590Z,18.65
2022-10-30T14:38:06.944Z,17.98
2022-10-30T14:40:45.753Z,18.73
2022-10-30T14:43:25.982Z,20.50
2022-10-30T14:45:57.325Z,19.95
2022-10-30T14:48:30.600Z,20.08
2022-10-30T14:51:06.126Z,20.12
2022-10-30T14:53:55.296Z,19.12
2022-10-30T14:56:53.032Z,18.65
2022-10-30T14:59:23.587Z,20.35
2022-10-30T15:02:12.698Z,19.55
2022-10-30T15:04:50.531Z,18.20
2022-10-30T15:07:52.338Z,16.40
2022-10-30T15:10:32.514Z,19.92
2022-10-30T15:13:20.469Z,21.27
2022-10-30T15:15:58.668Z,23.45
2022-10-30T15:18:30.349Z,24.45
2022-10-30T15:21:04.413Z,20.80
2022-10-30T15:23:34.786Z,21.50
2022-10-30T15:26:09.489Z,19.85
2022-10-30T15:28:38.874Z,20.48
2022-10-30T15:31:08.514Z,22.23
2022-10-30T15:33:38.166Z,23.08
2022-10-30T15:36:06.443Z,22.80
2022-10-30T15:38:33.837Z,20.73
2022-10-30T15:41:04.793Z,19.30
2022-10-30T15:43:37.832Z,19.87
2022-10-30T15:46:11.984Z,23.87
2022-10-30T15:48:42.218Z,20.90
2022-10-30T15:51:17.102Z,23.45
2022-10-30T15:53:53.775Z,24.70
2022-10-30T15:56:32.983Z,23.40
2022-10-30T15:59:05.548Z,22.17
2022-10-30T16:01:46.759Z,21.40
2022-10-30T16:04:21.646Z,19.83
2022-10-30T16:06:53.322Z,21.17
2022-10-30T16:09:21.395Z,23.70
2022-10-30T16:11:50.271Z,21.67
2022-10-30T16:14:23.501Z,21.37
2022-10-30T16:16:52.013Z,22.15
2022-10-30T16:19:27.999Z,21.55
2022-10-30T16:21:58.277Z,22.48
2022-10-30T16:24:33.832Z,24.02
2022-10-30T16:27:16.163Z,25.52
2022-10-30T16:29:44.590Z,21.58
2022-10-30T16:32:14.487Z,21.30
2022-10-30T16:34:42.854Z,22.75
2022-10-30T16:37:21.109Z,24.73
2022-10-30T16:39:50.725Z,25.45
2022-10-30T16:42:22.542Z,24.10
2022-10-30T16:44:50.622Z,26.92
2022-10-30T16:47:17.883Z,27.67
2022-10-30T16:49:49.641Z,26.70
2022-10-30T16:52:18.981Z,26.23
2022-10-30T16:54:58.223Z,24.27
2022-10-30T16:57:28.453Z,20.58
2022-10-30T16:59:56.494Z,25.05
2022-10-30T17:02:27.309Z,24.30
2022-10-30T17:05:04.851Z,25.20
2022-10-30T17:07:33.602Z,21.98
2022-10-30T17:10:01.379Z,24.63
2022-10-30T17:12:30.081Z,22.67
2022-10-30T17:15:07.005Z,24.12
2022-10-30T17:17:39.712Z,25.77
2022-10-30T17:22:44.414Z,28.35
2022-10-30T17:25:34.917Z,26.73
2022-10-30T17:28:03.436Z,27.05
2022-10-30T17:30:36.256Z,28.33
2022-10-30T17:33:23.274Z,27.85
2022-10-30T17:35:51.514Z,24.85
2022-10-30T17:38:19.338Z,26.17
2022-10-30T17:40:47.505Z,25.48
2022-10-30T17:43:15.501Z,24.15
2022-10-30T17:45:44.233Z,25.85
2022-10-30T17:48:17.988Z,28.00
2022-10-30T17:50:46.053Z,27.10
2022-10-30T17:53:21.718Z,23.92
2022-10-30T17:56:12.855Z,26.55
2022-10-30T17:58:40.692Z,26.37
2022-10-30T18:01:17.020Z,23.98
2022-10-30T18:03:44.901Z,28.92
2022-10-30T18:06:18.155Z,26.80
2022-10-30T18:08:49.792Z,25.65
2022-10-30T18:11:20.317Z,26.73
2022-10-30T18:13:53.468Z,27.00
2022-10-30T18:16:20.918Z,29.67
2022-10-30T18:18:49.238Z,26.50
2022-10-30T18:21:19.193Z,27.45
2022-10-30T18:23:52.280Z,25.33
2022-10-30T18:26:26.392Z,26.35
2022-10-30T18:28:54.384Z,26.35
2022-10-30T18:31:23.876Z,26.60
2022-10-30T18:33:52.038Z,27.17
2022-10-30T18:36:22.657Z,32.53
2022-10-30T18:38:53.192Z,28.92
2022-10-30T18:41:32.648Z,27.50
2022-10-30T18:44:01.455Z,28.05
2022-10-30T18:46:31.186Z,27.02
2022-10-30T18:48:59.352Z,32.72
2022-10-30T18:51:28.561Z,31.02
2022-10-30T18:53:57.333Z,28.17
2022-10-30T18:56:27.146Z,28.77
2022-10-30T18:59:00.730Z,29.92
2022-10-30T19:01:34.394Z,27.48
2022-10-30T19:04:04.329Z,27.15
2022-10-30T19:06:34.687Z,31.80
2022-10-30T19:09:02.909Z,35.58
2022-10-30T19:11:31.841Z,31.08
2022-10-30T19:13:59.946Z,33.88
2022-10-30T19:16:31.460Z,39.05
2022-10-30T19:18:59.170Z,39.88
2022-10-30T19:21:27.005Z,33.85
2022-10-30T19:23:56.575Z,37.38
2022-10-30T19:26:24.796Z,29.45
2022-10-30T19:28:52.623Z,68.15
2022-10-30T19:31:20.516Z,46.92
2022-10-30T19:33:51.489Z,44.55
2022-10-30T19:36:37.061Z,31.08
2022-10-30T19:39:11.035Z,30.15
2022-10-30T19:41:40.302Z,28.05
2022-10-30T19:44:08.112Z,33.55
2022-10-30T19:46:37.506Z,27.55
2022-10-30T19:49:17.658Z,28.67
2022-10-30T19:51:46.064Z,32.85
2022-10-30T19:54:14.383Z,27.65
2022-10-30T19:56:44.832Z,32.45
2022-10-30T19:59:14.864Z,32.00
2022-10-30T20:01:44.728Z,29.92
2022-10-30T20:04:13.423Z,26.87
2022-10-30T20:06:41.209Z,31.23
2022-10-30T20:09:11.659Z,31.52
2022-10-30T20:11:39.898Z,29.87
2022-10-30T20:14:07.639Z,34.75
2022-10-30T20:16:35.469Z,30.27
2022-10-30T20:19:25.720Z,29.87
2022-10-30T20:21:53.345Z,29.23
2022-10-30T20:24:22.013Z,29.92
2022-10-30T20:26:50.676Z,27.00
2022-10-30T20:29:19.124Z,27.33
2022-10-30T20:31:47.262Z,28.20
2022-10-30T20:34:15.121Z,25.73
2022-10-30T20:36:42.789Z,28.73
2022-10-30T20:39:12.124Z,27.75
2022-10-30T20:41:41.372Z,27.02
2022-10-30T20:44:15.926Z,27.08
2022-10-30T20:46:43.799Z,24.73
2022-10-30T20:49:17.551Z,26.75
2022-10-30T20:51:48.289Z,28.95
2022-10-30T20:54:16.299Z,27.95
2022-10-30T20:56:44.356Z,30.60
2022-10-30T20:59:12.021Z,43.28
2022-10-30T21:01:39.737Z,29.58
2022-10-30T21:04:07.896Z,31.52
2022-10-30T21:06:35.653Z,32.17
2022-10-30T21:09:03.048Z,29.12
2022-10-30T21:11:30.391Z,31.35
2022-10-30T21:13:58.540Z,29.20
2022-10-30T21:16:26.223Z,31.65
2022-10-30T21:18:54.475Z,28.90
2022-10-30T21:21:25.560Z,32.05
2022-10-30T21:23:54.697Z,30.50
2022-10-30T21:26:23.209Z,31.17
2022-10-30T21:28:50.602Z,32.42
2022-10-30T21:31:18.361Z,30.90
2022-10-30T21:33:47.064Z,29.75
2022-10-30T21:36:20.243Z,31.17
2022-10-30T21:38:48.189Z,28.87
2022-10-30T21:41:19.893Z,31.23
2022-10-30T21:43:55.269Z,33.55
2022-10-30T21:46:30.192Z,34.03
2022-10-30T21:49:02.660Z,31.75
2022-10-30T21:51:30.290Z,33.40
2022-10-30T21:53:57.737Z,33.50
2022-10-30T21:56:27.309Z,37.15
2022-10-30T21:58:56.220Z,33.42
2022-10-30T22:01:28.747Z,38.05
2022-10-30T22:04:01.950Z,32.70
2022-10-30T22:06:29.806Z,33.08
2022-10-30T22:08:58.240Z,33.95
2022-10-30T22:11:27.742Z,40.22
2022-10-30T22:13:59.347Z,35.38
2022-10-30T22:16:28.716Z,34.03
2022-10-30T22:18:56.805Z,34.63
2022-10-30T22:21:24.213Z,35.33
2022-10-30T22:23:51.833Z,31.62
2022-10-30T22:26:21.367Z,36.30
2022-10-30T22:28:55.243Z,38.63
2022-10-30T22:31:24.341Z,31.12
2022-10-30T22:33:52.106Z,35.70
2022-10-30T22:36:27.932Z,33.50
2022-10-30T22:39:04.212Z,36.15
2022-10-30T22:41:36.418Z,33.85
2022-10-30T22:44:08.245Z,32.05
2022-10-30T22:46:36.287Z,34.20
2022-10-30T22:49:03.873Z,42.13
2022-10-30T22:51:33.131Z,108.60
2022-10-30T22:54:02.262Z,64.72
2022-10-30T22:56:32.606Z,38.92
2022-10-30T22:59:01.943Z,36.10
2022-10-30T23:01:31.362Z,35.28
2022-10-30T23:04:00.864Z,33.97
2022-10-30T23:06:30.201Z,35.45
2022-10-30T23:08:59.476Z,37.05
2022-10-30T23:11:27.746Z,39.72
2022-10-30T23:13:55.599Z,37.35
2022-10-30T23:16:25.396Z,41.40
2022-10-30T23:18:55.455Z,42.75
2022-10-30T23:21:25.230Z,41.83
2022-10-30T23:23:52.986Z,41.47
2022-10-30T23:26:23.639Z,40.95
2022-10-30T23:28:53.028Z,42.45
2022-10-30T23:31:33.405Z,46.65
2022-10-30T23:34:03.162Z,39.70
2022-10-30T23:36:30.532Z,46.03
2022-10-30T23:39:00.332Z,45.75
2022-10-30T23:41:30.067Z,42.90
2022-10-30T23:43:59.338Z,41.25
2022-10-30T23:46:27.238Z,41.75
2022-10-30T23:48:55.265Z,32.13
2022-10-30T23:51:22.816Z,37.00
2022-10-30T23:53:50.182Z,38.33
2022-10-30T23:56:18.248Z,38.25
2022-10-30T23:58:46.906Z,35.40
